sensor_id;sensor_type;location;lat;lon;timestamp;temperature;humidity
14097;DHT22;7125;48.106;11.544;2023-04-01T00:02:18;7.80;99.90
14097;DHT22;7125;48.106;11.544;2023-04-01T00:04:47;7.70;99.90
14097;DHT22;7125;48.106;11.544;2023-04-01T00:07:17;7.70;99.90
14097;DHT22;7125;48.106;11.544;2023-04-01T00:09:47;7.60;99.90
14097;DHT22;7125;48.106;11.544;2023-04-01T00:12:14;7.60;99.90
14097;DHT22;7125;48.106;11.544;2023-04-01T00:14:41;7.60;99.90
14097;DHT22;7125;48.106;11.544;2023-04-01T00:17:11;7.60;99.90
14097;DHT22;7125;48.106;11.544;2023-04-01T00:19:39;7.60;99.90
14097;DHT22;7125;48.106;11.544;2023-04-01T00:22:07;7.60;99.90
14097;DHT22;7125;48.106;11.544;2023-04-01T00:24:37;7.50;99.90
14097;DHT22;7125;48.106;11.544;2023-04-01T00:27:05;7.50;99.90
14097;DHT22;7125;48.106;11.544;2023-04-01T00:29:36;7.50;99.90
14097;DHT22;7125;48.106;11.544;2023-04-01T00:32:05;7.50;99.90
14097;DHT22;7125;48.106;11.544;2023-04-01T00:34:34;7.50;99.90
14097;DHT22;7125;48.106;11.544;2023-04-01T00:37:03;7.50;99.90
14097;DHT22;7125;48.106;11.544;2023-04-01T00:39:34;7.50;99.90
14097;DHT22;7125;48.106;11.544;2023-04-01T00:42:04;7.50;99.90
14097;DHT22;7125;48.106;11.544;2023-04-01T00:44:34;7.40;99.90
14097;DHT22;7125;48.106;11.544;2023-04-01T00:47:03;7.40;99.90
14097;DHT22;7125;48.106;11.544;2023-04-01T00:49:34;7.40;99.90
14097;DHT22;7125;48.106;11.544;2023-04-01T00:52:08;7.40;99.90
14097;DHT22;7125;48.106;11.544;2023-04-01T00:54:41;7.30;99.90
14097;DHT22;7125;48.106;11.544;2023-04-01T00:57:12;7.40;99.90
14097;DHT22;7125;48.106;11.544;2023-04-01T00:59:47;7.40;99.90
14097;DHT22;7125;48.106;11.544;2023-04-01T01:02:19;7.50;99.90
14097;DHT22;7125;48.106;11.544;2023-04-01T01:04:47;7.40;99.90
14097;DHT22;7125;48.106;11.544;2023-04-01T01:07:22;7.50;99.90
14097;DHT22;7125;48.106;11.544;2023-04-01T01:09:57;7.50;99.90
14097;DHT22;7125;48.106;11.544;2023-04-01T01:12:35;7.50;99.90
14097;DHT22;7125;48.106;11.544;2023-04-01T01:15:12;7.50;99.90
14097;DHT22;7125;48.106;11.544;2023-04-01T01:17:53;7.60;99.90
14097;DHT22;7125;48.106;11.544;2023-04-01T01:20:49;7.60;99.90
14097;DHT22;7125;48.106;11.544;2023-04-01T01:26:46;7.70;99.90
14097;DHT22;7125;48.106;11.544;2023-04-01T01:29:43;7.70;99.90
14097;DHT22;7125;48.106;11.544;2023-04-01T01:32:20;7.80;99.90
14097;DHT22;7125;48.106;11.544;2023-04-01T01:34:54;7.80;99.90
14097;DHT22;7125;48.106;11.544;2023-04-01T01:37:27;7.80;99.90
14097;DHT22;7125;48.106;11.544;2023-04-01T01:40:03;7.80;99.90
14097;DHT22;7125;48.106;11.544;2023-04-01T01:42:35;7.70;99.90
14097;DHT22;7125;48.106;11.544;2023-04-01T01:45:10;7.70;99.90
14097;DHT22;7125;48.106;11.544;2023-04-01T01:47:39;7.70;99.90
14097;DHT22;7125;48.106;11.544;2023-04-01T01:50:08;7.60;99.90
14097;DHT22;7125;48.106;11.544;2023-04-01T01:52:37;7.70;99.90
14097;DHT22;7125;48.106;11.544;2023-04-01T01:55:26;7.70;99.90
14097;DHT22;7125;48.106;11.544;2023-04-01T01:57:55;7.70;99.90
14097;DHT22;7125;48.106;11.544;2023-04-01T02:00:27;7.60;99.90
14097;DHT22;7125;48.106;11.544;2023-04-01T02:02:56;7.70;99.90
14097;DHT22;7125;48.106;11.544;2023-04-01T02:05:26;7.70;99.90
14097;DHT22;7125;48.106;11.544;2023-04-01T02:08:06;7.70;99.90
14097;DHT22;7125;48.106;11.544;2023-04-01T02:10:42;7.70;99.90
14097;DHT22;7125;48.106;11.544;2023-04-01T02:13:16;7.70;99.90
14097;DHT22;7125;48.106;11.544;2023-04-01T02:15:47;7.80;99.90
14097;DHT22;7125;48.106;11.544;2023-04-01T02:18:17;7.80;99.90
14097;DHT22;7125;48.106;11.544;2023-04-01T02:20:46;7.70;99.90
14097;DHT22;7125;48.106;11.544;2023-04-01T02:23:16;7.80;99.90
14097;DHT22;7125;48.106;11.544;2023-04-01T02:25:44;7.80;99.90
14097;DHT22;7125;48.106;11.544;2023-04-01T02:28:13;7.80;99.90
14097;DHT22;7125;48.106;11.544;2023-04-01T02:30:43;7.70;99.90
14097;DHT22;7125;48.106;11.544;2023-04-01T02:33:11;7.70;99.90
14097;DHT22;7125;48.106;11.544;2023-04-01T02:35:39;7.70;99.90
14097;DHT22;7125;48.106;11.544;2023-04-01T02:38:07;7.70;99.90
14097;DHT22;7125;48.106;11.544;2023-04-01T02:40:50;7.80;99.90
14097;DHT22;7125;48.106;11.544;2023-04-01T02:43:19;7.80;99.90
14097;DHT22;7125;48.106;11.544;2023-04-01T02:45:46;7.80;99.90
14097;DHT22;7125;48.106;11.544;2023-04-01T02:48:15;7.70;99.90
14097;DHT22;7125;48.106;11.544;2023-04-01T02:50:42;7.70;99.90
14097;DHT22;7125;48.106;11.544;2023-04-01T02:53:10;7.70;99.90
14097;DHT22;7125;48.106;11.544;2023-04-01T02:55:37;7.70;99.90
14097;DHT22;7125;48.106;11.544;2023-04-01T02:58:06;7.70;99.90
14097;DHT22;7125;48.106;11.544;2023-04-01T03:00:34;7.70;99.90
14097;DHT22;7125;48.106;11.544;2023-04-01T03:03:01;7.70;99.90
14097;DHT22;7125;48.106;11.544;2023-04-01T03:05:31;7.70;99.90
14097;DHT22;7125;48.106;11.544;2023-04-01T03:07:59;7.70;99.90
14097;DHT22;7125;48.106;11.544;2023-04-01T03:10:27;7.60;99.90
14097;DHT22;7125;48.106;11.544;2023-04-01T03:12:54;7.60;99.90
14097;DHT22;7125;48.106;11.544;2023-04-01T03:15:22;7.60;99.90
14097;DHT22;7125;48.106;11.544;2023-04-01T03:17:49;7.50;99.90
14097;DHT22;7125;48.106;11.544;2023-04-01T03:20:17;7.50;99.90
14097;DHT22;7125;48.106;11.544;2023-04-01T03:22:44;7.60;99.90
14097;DHT22;7125;48.106;11.544;2023-04-01T03:25:13;7.60;99.90
14097;DHT22;7125;48.106;11.544;2023-04-01T03:27:40;7.60;99.90
14097;DHT22;7125;48.106;11.544;2023-04-01T03:30:09;7.60;99.90
14097;DHT22;7125;48.106;11.544;2023-04-01T03:32:47;7.60;99.90
14097;DHT22;7125;48.106;11.544;2023-04-01T03:35:16;7.50;99.90
14097;DHT22;7125;48.106;11.544;2023-04-01T03:37:51;7.40;99.90
14097;DHT22;7125;48.106;11.544;2023-04-01T03:40:18;7.40;99.90
14097;DHT22;7125;48.106;11.544;2023-04-01T03:42:47;7.30;99.90
14097;DHT22;7125;48.106;11.544;2023-04-01T03:45:14;7.30;99.90
14097;DHT22;7125;48.106;11.544;2023-04-01T03:47:41;7.30;99.90
14097;DHT22;7125;48.106;11.544;2023-04-01T03:50:12;7.30;99.90
14097;DHT22;7125;48.106;11.544;2023-04-01T03:52:39;7.30;99.90
14097;DHT22;7125;48.106;11.544;2023-04-01T03:55:07;7.30;99.90
14097;DHT22;7125;48.106;11.544;2023-04-01T03:57:35;7.30;99.90
14097;DHT22;7125;48.106;11.544;2023-04-01T04:00:13;7.20;99.90
14097;DHT22;7125;48.106;11.544;2023-04-01T04:02:44;7.20;99.90
14097;DHT22;7125;48.106;11.544;2023-04-01T04:05:16;7.20;99.90
14097;DHT22;7125;48.106;11.544;2023-04-01T04:07:44;7.10;99.90
14097;DHT22;7125;48.106;11.544;2023-04-01T04:10:11;7.10;99.90
14097;DHT22;7125;48.106;11.544;2023-04-01T04:12:38;7.00;99.90
14097;DHT22;7125;48.106;11.544;2023-04-01T04:15:06;6.90;99.90
14097;DHT22;7125;48.106;11.544;2023-04-01T04:17:34;6.90;99.90
14097;DHT22;7125;48.106;11.544;2023-04-01T04:20:01;6.90;99.90
14097;DHT22;7125;48.106;11.544;2023-04-01T04:22:30;6.90;99.90
14097;DHT22;7125;48.106;11.544;2023-04-01T04:24:58;7.00;99.90
14097;DHT22;7125;48.106;11.544;2023-04-01T04:27:26;7.00;99.90
14097;DHT22;7125;48.106;11.544;2023-04-01T04:30:04;7.00;99.90
14097;DHT22;7125;48.106;11.544;2023-04-01T04:32:36;7.10;99.90
14097;DHT22;7125;48.106;11.544;2023-04-01T04:35:05;7.20;99.90
14097;DHT22;7125;48.106;11.544;2023-04-01T04:37:35;7.20;99.90
14097;DHT22;7125;48.106;11.544;2023-04-01T04:40:02;7.20;99.90
14097;DHT22;7125;48.106;11.544;2023-04-01T04:42:31;7.20;99.90
14097;DHT22;7125;48.106;11.544;2023-04-01T04:45:06;7.20;99.90
14097;DHT22;7125;48.106;11.544;2023-04-01T04:47:34;7.20;99.90
14097;DHT22;7125;48.106;11.544;2023-04-01T04:50:08;7.20;99.90
14097;DHT22;7125;48.106;11.544;2023-04-01T04:52:40;7.20;99.90
14097;DHT22;7125;48.106;11.544;2023-04-01T04:55:08;7.20;99.90
14097;DHT22;7125;48.106;11.544;2023-04-01T04:57:36;7.20;99.90
14097;DHT22;7125;48.106;11.544;2023-04-01T05:00:04;7.20;99.90
14097;DHT22;7125;48.106;11.544;2023-04-01T05:02:46;7.20;99.90
14097;DHT22;7125;48.106;11.544;2023-04-01T05:05:13;7.20;99.90
14097;DHT22;7125;48.106;11.544;2023-04-01T05:07:42;7.30;99.90
14097;DHT22;7125;48.106;11.544;2023-04-01T05:10:09;7.30;99.90
14097;DHT22;7125;48.106;11.544;2023-04-01T05:12:49;7.40;99.90
14097;DHT22;7125;48.106;11.544;2023-04-01T05:15:20;7.50;99.90
14097;DHT22;7125;48.106;11.544;2023-04-01T05:17:48;7.50;99.90
14097;DHT22;7125;48.106;11.544;2023-04-01T05:20:15;7.60;99.90
14097;DHT22;7125;48.106;11.544;2023-04-01T05:22:44;7.70;99.90
14097;DHT22;7125;48.106;11.544;2023-04-01T05:25:11;7.70;99.90
14097;DHT22;7125;48.106;11.544;2023-04-01T05:27:38;7.70;99.90
14097;DHT22;7125;48.106;11.544;2023-04-01T05:30:10;7.70;99.90
14097;DHT22;7125;48.106;11.544;2023-04-01T05:33:00;7.70;99.90
14097;DHT22;7125;48.106;11.544;2023-04-01T05:35:28;7.80;99.90
14097;DHT22;7125;48.106;11.544;2023-04-01T05:37:57;7.80;99.90
14097;DHT22;7125;48.106;11.544;2023-04-01T05:40:25;7.80;99.90
14097;DHT22;7125;48.106;11.544;2023-04-01T05:43:01;7.80;99.90
14097;DHT22;7125;48.106;11.544;2023-04-01T05:45:31;7.80;99.90
14097;DHT22;7125;48.106;11.544;2023-04-01T05:48:21;7.90;99.90
14097;DHT22;7125;48.106;11.544;2023-04-01T05:50:48;7.90;99.90
14097;DHT22;7125;48.106;11.544;2023-04-01T05:53:24;7.90;99.90
14097;DHT22;7125;48.106;11.544;2023-04-01T05:55:53;7.90;99.90
14097;DHT22;7125;48.106;11.544;2023-04-01T05:58:20;7.90;99.90
14097;DHT22;7125;48.106;11.544;2023-04-01T06:00:47;7.90;99.90
14097;DHT22;7125;48.106;11.544;2023-04-01T06:03:16;8.00;99.90
14097;DHT22;7125;48.106;11.544;2023-04-01T06:05:46;8.00;99.90
14097;DHT22;7125;48.106;11.544;2023-04-01T06:08:17;8.00;99.90
14097;DHT22;7125;48.106;11.544;2023-04-01T06:11:15;8.00;99.90
14097;DHT22;7125;48.106;11.544;2023-04-01T06:13:54;8.00;99.90
14097;DHT22;7125;48.106;11.544;2023-04-01T06:16:35;8.10;99.90
14097;DHT22;7125;48.106;11.544;2023-04-01T06:19:26;8.10;99.90
14097;DHT22;7125;48.106;11.544;2023-04-01T06:22:22;8.10;99.90
14097;DHT22;7125;48.106;11.544;2023-04-01T06:31:57;8.20;99.90
14097;DHT22;7125;48.106;11.544;2023-04-01T06:34:51;8.20;99.90
14097;DHT22;7125;48.106;11.544;2023-04-01T06:37:40;8.20;99.90
14097;DHT22;7125;48.106;11.544;2023-04-01T06:40:23;8.20;99.90
14097;DHT22;7125;48.106;11.544;2023-04-01T06:43:03;8.20;99.90
14097;DHT22;7125;48.106;11.544;2023-04-01T06:45:55;8.20;99.90
14097;DHT22;7125;48.106;11.544;2023-04-01T06:48:59;8.30;99.90
14097;DHT22;7125;48.106;11.544;2023-04-01T06:51:48;8.30;99.90
14097;DHT22;7125;48.106;11.544;2023-04-01T06:54:53;8.30;99.90
14097;DHT22;7125;48.106;11.544;2023-04-01T06:58:00;8.30;99.90
14097;DHT22;7125;48.106;11.544;2023-04-01T07:00:31;8.50;99.90
14097;DHT22;7125;48.106;11.544;2023-04-01T07:03:09;8.60;99.90
14097;DHT22;7125;48.106;11.544;2023-04-01T07:05:42;8.80;99.90
14097;DHT22;7125;48.106;11.544;2023-04-01T07:08:12;9.00;99.90
14097;DHT22;7125;48.106;11.544;2023-04-01T07:10:45;9.10;99.90
14097;DHT22;7125;48.106;11.544;2023-04-01T07:13:36;9.40;99.90
14097;DHT22;7125;48.106;11.544;2023-04-01T07:16:16;9.50;99.90
14097;DHT22;7125;48.106;11.544;2023-04-01T07:18:49;9.50;99.90
14097;DHT22;7125;48.106;11.544;2023-04-01T07:21:26;9.50;99.90
14097;DHT22;7125;48.106;11.544;2023-04-01T07:24:04;9.60;99.90
14097;DHT22;7125;48.106;11.544;2023-04-01T07:26:36;9.60;99.90
14097;DHT22;7125;48.106;11.544;2023-04-01T07:29:11;9.60;99.90
14097;DHT22;7125;48.106;11.544;2023-04-01T07:32:03;9.60;99.90
14097;DHT22;7125;48.106;11.544;2023-04-01T07:34:39;9.60;99.90
14097;DHT22;7125;48.106;11.544;2023-04-01T07:37:17;9.60;99.90
14097;DHT22;7125;48.106;11.544;2023-04-01T07:39:52;9.50;99.90
14097;DHT22;7125;48.106;11.544;2023-04-01T07:42:38;9.50;99.90
14097;DHT22;7125;48.106;11.544;2023-04-01T07:45:16;9.50;99.90
14097;DHT22;7125;48.106;11.544;2023-04-01T07:48:04;9.70;99.90
14097;DHT22;7125;48.106;11.544;2023-04-01T07:50:40;9.80;99.90
14097;DHT22;7125;48.106;11.544;2023-04-01T07:53:20;10.00;99.90
14097;DHT22;7125;48.106;11.544;2023-04-01T07:55:59;10.10;99.90
14097;DHT22;7125;48.106;11.544;2023-04-01T07:58:44;10.40;99.90
14097;DHT22;7125;48.106;11.544;2023-04-01T08:01:45;10.50;99.90
14097;DHT22;7125;48.106;11.544;2023-04-01T08:04:25;10.50;99.90
14097;DHT22;7125;48.106;11.544;2023-04-01T08:07:01;10.50;99.90
14097;DHT22;7125;48.106;11.544;2023-04-01T08:09:44;10.60;99.90
14097;DHT22;7125;48.106;11.544;2023-04-01T08:12:47;10.60;99.90
14097;DHT22;7125;48.106;11.544;2023-04-01T08:15:39;10.70;99.90
14097;DHT22;7125;48.106;11.544;2023-04-01T08:18:32;10.70;99.90
14097;DHT22;7125;48.106;11.544;2023-04-01T08:21:11;10.80;99.90
14097;DHT22;7125;48.106;11.544;2023-04-01T08:23:43;10.80;99.90
14097;DHT22;7125;48.106;11.544;2023-04-01T08:26:19;10.90;99.90
14097;DHT22;7125;48.106;11.544;2023-04-01T08:28:54;11.00;99.90
14097;DHT22;7125;48.106;11.544;2023-04-01T08:31:29;11.00;99.90
14097;DHT22;7125;48.106;11.544;2023-04-01T08:33:58;10.90;99.90
14097;DHT22;7125;48.106;11.544;2023-04-01T08:36:29;10.90;99.90
14097;DHT22;7125;48.106;11.544;2023-04-01T08:39:13;11.00;99.90
14097;DHT22;7125;48.106;11.544;2023-04-01T08:42:15;11.10;99.90
14097;DHT22;7125;48.106;11.544;2023-04-01T08:45:14;11.30;99.90
14097;DHT22;7125;48.106;11.544;2023-04-01T08:48:11;11.40;99.90
14097;DHT22;7125;48.106;11.544;2023-04-01T08:54:05;11.70;99.90
14097;DHT22;7125;48.106;11.544;2023-04-01T08:56:41;11.80;99.90
14097;DHT22;7125;48.106;11.544;2023-04-01T08:59:30;11.90;99.90
14097;DHT22;7125;48.106;11.544;2023-04-01T09:02:36;11.90;99.90
14097;DHT22;7125;48.106;11.544;2023-04-01T09:08:34;12.10;99.90
14097;DHT22;7125;48.106;11.544;2023-04-01T09:11:20;12.20;99.80
14097;DHT22;7125;48.106;11.544;2023-04-01T09:14:06;12.30;99.70
14097;DHT22;7125;48.106;11.544;2023-04-01T09:17:01;12.30;98.90
14097;DHT22;7125;48.106;11.544;2023-04-01T09:19:50;12.20;98.80
14097;DHT22;7125;48.106;11.544;2023-04-01T09:22:28;12.30;99.20
14097;DHT22;7125;48.106;11.544;2023-04-01T09:25:26;12.60;99.30
14097;DHT22;7125;48.106;11.544;2023-04-01T09:28:03;12.90;98.40
14097;DHT22;7125;48.106;11.544;2023-04-01T09:31:05;13.00;97.30
14097;DHT22;7125;48.106;11.544;2023-04-01T09:36:45;12.90;96.90
14097;DHT22;7125;48.106;11.544;2023-04-01T09:39:37;12.70;96.60
14097;DHT22;7125;48.106;11.544;2023-04-01T09:42:26;12.70;96.20
14097;DHT22;7125;48.106;11.544;2023-04-01T09:45:22;12.70;96.20
14097;DHT22;7125;48.106;11.544;2023-04-01T09:48:05;12.90;96.50
14097;DHT22;7125;48.106;11.544;2023-04-01T09:50:47;13.00;96.40
14097;DHT22;7125;48.106;11.544;2023-04-01T09:53:36;13.20;96.30
14097;DHT22;7125;48.106;11.544;2023-04-01T10:03:13;13.40;95.20
14097;DHT22;7125;48.106;11.544;2023-04-01T10:15:42;13.20;93.90
14097;DHT22;7125;48.106;11.544;2023-04-01T10:21:52;12.90;94.30
14097;DHT22;7125;48.106;11.544;2023-04-01T10:27:59;12.80;94.40
14097;DHT22;7125;48.106;11.544;2023-04-01T10:31:25;12.90;94.60
14097;DHT22;7125;48.106;11.544;2023-04-01T10:37:22;13.30;93.60
14097;DHT22;7125;48.106;11.544;2023-04-01T10:40:25;13.40;93.80
14097;DHT22;7125;48.106;11.544;2023-04-01T10:53:11;13.50;93.40
14097;DHT22;7125;48.106;11.544;2023-04-01T11:00:00;12.90;95.40
14097;DHT22;7125;48.106;11.544;2023-04-01T11:10:02;12.60;98.10
14097;DHT22;7125;48.106;11.544;2023-04-01T11:13:13;12.40;99.30
14097;DHT22;7125;48.106;11.544;2023-04-01T11:19:25;12.00;99.90
14097;DHT22;7125;48.106;11.544;2023-04-01T11:22:07;11.70;99.90
14097;DHT22;7125;48.106;11.544;2023-04-01T11:31:45;11.60;99.90
14097;DHT22;7125;48.106;11.544;2023-04-01T11:34:41;11.60;99.90
14097;DHT22;7125;48.106;11.544;2023-04-01T11:37:22;11.80;99.90
14097;DHT22;7125;48.106;11.544;2023-04-01T11:40:20;11.80;99.90
14097;DHT22;7125;48.106;11.544;2023-04-01T11:43:15;11.70;99.90
14097;DHT22;7125;48.106;11.544;2023-04-01T11:46:11;11.60;99.90
14097;DHT22;7125;48.106;11.544;2023-04-01T11:48:52;11.60;99.90
14097;DHT22;7125;48.106;11.544;2023-04-01T11:51:48;11.60;99.90
14097;DHT22;7125;48.106;11.544;2023-04-01T11:54:30;11.50;99.90
14097;DHT22;7125;48.106;11.544;2023-04-01T11:57:21;11.30;99.90
14097;DHT22;7125;48.106;11.544;2023-04-01T12:00:24;10.90;99.90
14097;DHT22;7125;48.106;11.544;2023-04-01T12:03:08;10.50;99.90
14097;DHT22;7125;48.106;11.544;2023-04-01T12:05:42;10.00;99.90
14097;DHT22;7125;48.106;11.544;2023-04-01T12:08:22;9.80;99.90
14097;DHT22;7125;48.106;11.544;2023-04-01T12:10:59;9.60;99.90
14097;DHT22;7125;48.106;11.544;2023-04-01T12:13:46;9.40;99.90
14097;DHT22;7125;48.106;11.544;2023-04-01T12:16:42;9.20;99.90
14097;DHT22;7125;48.106;11.544;2023-04-01T12:19:17;9.10;99.90
14097;DHT22;7125;48.106;11.544;2023-04-01T12:21:52;9.00;99.90
14097;DHT22;7125;48.106;11.544;2023-04-01T12:24:45;9.00;99.90
14097;DHT22;7125;48.106;11.544;2023-04-01T12:27:26;9.00;99.90
14097;DHT22;7125;48.106;11.544;2023-04-01T12:30:21;9.00;99.90
14097;DHT22;7125;48.106;11.544;2023-04-01T12:33:04;8.80;99.90
14097;DHT22;7125;48.106;11.544;2023-04-01T12:35:49;8.60;99.90
14097;DHT22;7125;48.106;11.544;2023-04-01T12:38:41;8.50;99.90
14097;DHT22;7125;48.106;11.544;2023-04-01T12:41:17;8.40;99.90
14097;DHT22;7125;48.106;11.544;2023-04-01T12:47:19;8.30;99.90
14097;DHT22;7125;48.106;11.544;2023-04-01T12:49:57;8.30;99.90
14097;DHT22;7125;48.106;11.544;2023-04-01T12:52:44;8.20;99.90
14097;DHT22;7125;48.106;11.544;2023-04-01T12:55:36;8.20;99.90
14097;DHT22;7125;48.106;11.544;2023-04-01T13:01:52;8.10;99.90
14097;DHT22;7125;48.106;11.544;2023-04-01T13:04:50;8.10;99.90
14097;DHT22;7125;48.106;11.544;2023-04-01T13:07:57;8.10;99.90
14097;DHT22;7125;48.106;11.544;2023-04-01T13:10:37;8.10;99.90
14097;DHT22;7125;48.106;11.544;2023-04-01T13:13:42;8.00;99.90
14097;DHT22;7125;48.106;11.544;2023-04-01T13:16:17;8.00;99.90
14097;DHT22;7125;48.106;11.544;2023-04-01T13:19:13;8.00;99.90
14097;DHT22;7125;48.106;11.544;2023-04-01T13:21:54;8.00;99.90
14097;DHT22;7125;48.106;11.544;2023-04-01T13:24:34;8.00;99.90
14097;DHT22;7125;48.106;11.544;2023-04-01T13:27:12;8.00;99.90
14097;DHT22;7125;48.106;11.544;2023-04-01T13:30:02;8.00;99.90
14097;DHT22;7125;48.106;11.544;2023-04-01T13:32:36;8.00;99.90
14097;DHT22;7125;48.106;11.544;2023-04-01T13:35:25;8.00;99.90
14097;DHT22;7125;48.106;11.544;2023-04-01T13:38:31;8.00;99.90
14097;DHT22;7125;48.106;11.544;2023-04-01T13:41:18;8.00;99.90
14097;DHT22;7125;48.106;11.544;2023-04-01T13:43:58;8.00;99.90
14097;DHT22;7125;48.106;11.544;2023-04-01T13:46:53;7.90;99.90
14097;DHT22;7125;48.106;11.544;2023-04-01T13:49:38;8.00;99.90
14097;DHT22;7125;48.106;11.544;2023-04-01T13:55:35;8.10;99.90
14097;DHT22;7125;48.106;11.544;2023-04-01T14:01:15;8.20;99.90
14097;DHT22;7125;48.106;11.544;2023-04-01T14:04:02;8.30;99.90
14097;DHT22;7125;48.106;11.544;2023-04-01T14:06:38;8.30;99.90
14097;DHT22;7125;48.106;11.544;2023-04-01T14:09:34;8.50;99.90
14097;DHT22;7125;48.106;11.544;2023-04-01T14:12:19;8.60;99.90
14097;DHT22;7125;48.106;11.544;2023-04-01T14:15:27;8.60;99.90
14097;DHT22;7125;48.106;11.544;2023-04-01T14:18:33;8.60;99.90
14097;DHT22;7125;48.106;11.544;2023-04-01T14:21:26;8.60;99.90
14097;DHT22;7125;48.106;11.544;2023-04-01T14:27:31;8.60;99.90
14097;DHT22;7125;48.106;11.544;2023-04-01T14:33:32;8.70;99.90
14097;DHT22;7125;48.106;11.544;2023-04-01T14:36:28;8.70;99.90
14097;DHT22;7125;48.106;11.544;2023-04-01T14:43:16;8.80;99.90
14097;DHT22;7125;48.106;11.544;2023-04-01T14:46:00;8.80;99.90
14097;DHT22;7125;48.106;11.544;2023-04-01T14:48:51;8.90;99.90
14097;DHT22;7125;48.106;11.544;2023-04-01T14:51:49;8.90;99.90
14097;DHT22;7125;48.106;11.544;2023-04-01T14:54:39;8.80;99.90
14097;DHT22;7125;48.106;11.544;2023-04-01T14:57:11;8.70;99.90
14097;DHT22;7125;48.106;11.544;2023-04-01T15:00:09;8.60;99.90
14097;DHT22;7125;48.106;11.544;2023-04-01T15:02:48;8.60;99.90
14097;DHT22;7125;48.106;11.544;2023-04-01T15:05:38;8.60;99.90
14097;DHT22;7125;48.106;11.544;2023-04-01T15:08:15;8.50;99.90
14097;DHT22;7125;48.106;11.544;2023-04-01T15:26:38;8.20;99.90
14097;DHT22;7125;48.106;11.544;2023-04-01T15:29:35;8.30;99.90
14097;DHT22;7125;48.106;11.544;2023-04-01T15:32:19;8.40;99.90
14097;DHT22;7125;48.106;11.544;2023-04-01T15:34:54;8.50;99.90
14097;DHT22;7125;48.106;11.544;2023-04-01T15:40:42;8.80;99.90
14097;DHT22;7125;48.106;11.544;2023-04-01T15:43:21;8.90;99.90
14097;DHT22;7125;48.106;11.544;2023-04-01T15:46:15;8.90;99.90
14097;DHT22;7125;48.106;11.544;2023-04-01T15:49:00;9.00;99.90
14097;DHT22;7125;48.106;11.544;2023-04-01T15:54:32;9.20;99.90
14097;DHT22;7125;48.106;11.544;2023-04-01T15:57:32;9.20;99.90
14097;DHT22;7125;48.106;11.544;2023-04-01T16:00:22;9.40;99.90
14097;DHT22;7125;48.106;11.544;2023-04-01T16:03:10;9.40;99.90
14097;DHT22;7125;48.106;11.544;2023-04-01T16:05:55;9.50;99.90
14097;DHT22;7125;48.106;11.544;2023-04-01T16:08:54;9.60;99.90
14097;DHT22;7125;48.106;11.544;2023-04-01T16:11:30;9.70;99.90
14097;DHT22;7125;48.106;11.544;2023-04-01T16:14:18;9.70;99.90
14097;DHT22;7125;48.106;11.544;2023-04-01T16:17:15;9.70;99.90
14097;DHT22;7125;48.106;11.544;2023-04-01T16:19:51;9.70;99.90
14097;DHT22;7125;48.106;11.544;2023-04-01T16:22:26;9.70;99.90
14097;DHT22;7125;48.106;11.544;2023-04-01T16:25:32;9.70;99.90
14097;DHT22;7125;48.106;11.544;2023-04-01T16:28:15;9.80;99.90
14097;DHT22;7125;48.106;11.544;2023-04-01T16:30:55;9.70;99.90
14097;DHT22;7125;48.106;11.544;2023-04-01T16:33:28;9.70;99.90
14097;DHT22;7125;48.106;11.544;2023-04-01T16:36:21;9.70;99.90
14097;DHT22;7125;48.106;11.544;2023-04-01T16:39:06;9.70;99.90
14097;DHT22;7125;48.106;11.544;2023-04-01T16:41:38;9.60;99.90
14097;DHT22;7125;48.106;11.544;2023-04-01T16:44:18;9.70;99.90
14097;DHT22;7125;48.106;11.544;2023-04-01T16:46:49;9.70;99.90
14097;DHT22;7125;48.106;11.544;2023-04-01T16:49:36;9.70;99.90
14097;DHT22;7125;48.106;11.544;2023-04-01T16:52:16;9.60;99.90
14097;DHT22;7125;48.106;11.544;2023-04-01T16:54:53;9.60;99.90
14097;DHT22;7125;48.106;11.544;2023-04-01T16:57:26;9.50;99.90
14097;DHT22;7125;48.106;11.544;2023-04-01T16:59:57;9.40;99.90
14097;DHT22;7125;48.106;11.544;2023-04-01T17:02:35;9.40;99.90
14097;DHT22;7125;48.106;11.544;2023-04-01T17:05:09;9.30;99.90
14097;DHT22;7125;48.106;11.544;2023-04-01T17:07:54;9.30;99.90
14097;DHT22;7125;48.106;11.544;2023-04-01T17:10:43;9.30;99.90
14097;DHT22;7125;48.106;11.544;2023-04-01T17:13:29;9.30;99.90
14097;DHT22;7125;48.106;11.544;2023-04-01T17:16:06;9.40;99.90
14097;DHT22;7125;48.106;11.544;2023-04-01T17:18:46;9.40;99.90
14097;DHT22;7125;48.106;11.544;2023-04-01T17:21:20;9.30;99.90
14097;DHT22;7125;48.106;11.544;2023-04-01T17:23:53;9.30;99.90
14097;DHT22;7125;48.106;11.544;2023-04-01T17:26:34;9.30;99.90
14097;DHT22;7125;48.106;11.544;2023-04-01T17:29:09;9.20;99.90
14097;DHT22;7125;48.106;11.544;2023-04-01T17:31:46;9.20;99.90
14097;DHT22;7125;48.106;11.544;2023-04-01T17:34:41;9.20;99.90
14097;DHT22;7125;48.106;11.544;2023-04-01T17:37:21;9.20;99.90
14097;DHT22;7125;48.106;11.544;2023-04-01T17:40:06;9.20;99.90
14097;DHT22;7125;48.106;11.544;2023-04-01T17:42:41;9.20;99.90
14097;DHT22;7125;48.106;11.544;2023-04-01T17:45:21;9.10;99.90
14097;DHT22;7125;48.106;11.544;2023-04-01T17:47:55;9.10;99.90
14097;DHT22;7125;48.106;11.544;2023-04-01T17:50:42;9.10;99.90
14097;DHT22;7125;48.106;11.544;2023-04-01T17:53:27;9.10;99.90
14097;DHT22;7125;48.106;11.544;2023-04-01T17:56:07;9.10;99.90
14097;DHT22;7125;48.106;11.544;2023-04-01T17:58:44;9.20;99.90
14097;DHT22;7125;48.106;11.544;2023-04-01T18:01:28;9.10;99.90
14097;DHT22;7125;48.106;11.544;2023-04-01T18:04:11;9.10;99.90
14097;DHT22;7125;48.106;11.544;2023-04-01T18:06:56;9.10;99.90
14097;DHT22;7125;48.106;11.544;2023-04-01T18:09:34;9.10;99.90
14097;DHT22;7125;48.106;11.544;2023-04-01T18:12:09;9.10;99.90
14097;DHT22;7125;48.106;11.544;2023-04-01T18:15:01;9.10;99.90
14097;DHT22;7125;48.106;11.544;2023-04-01T18:17:41;9.10;99.90
14097;DHT22;7125;48.106;11.544;2023-04-01T18:23:04;9.20;99.90
14097;DHT22;7125;48.106;11.544;2023-04-01T18:25:40;9.20;99.90
14097;DHT22;7125;48.106;11.544;2023-04-01T18:28:25;9.10;99.90
14097;DHT22;7125;48.106;11.544;2023-04-01T18:31:06;8.90;99.90
14097;DHT22;7125;48.106;11.544;2023-04-01T18:33:44;8.80;99.90
14097;DHT22;7125;48.106;11.544;2023-04-01T18:36:19;8.60;99.90
14097;DHT22;7125;48.106;11.544;2023-04-01T18:38:52;8.50;99.90
14097;DHT22;7125;48.106;11.544;2023-04-01T18:41:28;8.40;99.90
14097;DHT22;7125;48.106;11.544;2023-04-01T18:44:16;8.30;99.90
14097;DHT22;7125;48.106;11.544;2023-04-01T18:47:23;8.30;99.90
14097;DHT22;7125;48.106;11.544;2023-04-01T18:50:01;8.20;99.90
14097;DHT22;7125;48.106;11.544;2023-04-01T18:52:33;8.20;99.90
14097;DHT22;7125;48.106;11.544;2023-04-01T18:55:35;8.10;99.90
14097;DHT22;7125;48.106;11.544;2023-04-01T18:58:27;8.00;99.90
14097;DHT22;7125;48.106;11.544;2023-04-01T19:04:00;8.00;99.90
14097;DHT22;7125;48.106;11.544;2023-04-01T19:06:34;7.90;99.90
14097;DHT22;7125;48.106;11.544;2023-04-01T19:09:24;7.90;99.90
14097;DHT22;7125;48.106;11.544;2023-04-01T19:15:14;8.00;99.90